sensor_id;sensor_type;location;lat;lon;timestamp;temperature;humidity
31379;DHT22;61664;48.112;11.662;2023-04-01T00:00:00;11.10;85.50
31379;DHT22;61664;48.112;11.662;2023-04-01T00:02:27;11.10;85.40
31379;DHT22;61664;48.112;11.662;2023-04-01T00:04:54;11.10;85.30
31379;DHT22;61664;48.112;11.662;2023-04-01T00:07:20;11.10;85.20
31379;DHT22;61664;48.112;11.662;2023-04-01T00:09:47;11.00;85.10
31379;DHT22;61664;48.112;11.662;2023-04-01T00:12:14;11.10;85.10
31379;DHT22;61664;48.112;11.662;2023-04-01T00:14:41;11.00;85.60
31379;DHT22;61664;48.112;11.662;2023-04-01T00:17:08;11.00;85.10
31379;DHT22;61664;48.112;11.662;2023-04-01T00:19:35;11.00;85.20
31379;DHT22;61664;48.112;11.662;2023-04-01T00:22:02;10.90;85.10
31379;DHT22;61664;48.112;11.662;2023-04-01T00:24:29;10.90;85.10
31379;DHT22;61664;48.112;11.662;2023-04-01T00:26:56;10.90;85.20
31379;DHT22;61664;48.112;11.662;2023-04-01T00:29:23;10.90;85.30
31379;DHT22;61664;48.112;11.662;2023-04-01T00:31:51;10.90;85.30
31379;DHT22;61664;48.112;11.662;2023-04-01T00:34:17;10.80;85.20
31379;DHT22;61664;48.112;11.662;2023-04-01T00:36:44;10.80;85.20
31379;DHT22;61664;48.112;11.662;2023-04-01T00:39:11;10.80;85.20
31379;DHT22;61664;48.112;11.662;2023-04-01T00:41:38;10.80;85.20
31379;DHT22;61664;48.112;11.662;2023-04-01T00:44:19;10.80;85.10
31379;DHT22;61664;48.112;11.662;2023-04-01T00:46:49;10.80;82.40
31379;DHT22;61664;48.112;11.662;2023-04-01T00:49:19;10.80;85.00
31379;DHT22;61664;48.112;11.662;2023-04-01T00:51:53;10.70;84.60
31379;DHT22;61664;48.112;11.662;2023-04-01T00:54:25;10.80;84.20
31379;DHT22;61664;48.112;11.662;2023-04-01T00:57:09;10.70;84.80
31379;DHT22;61664;48.112;11.662;2023-04-01T00:59:43;10.70;82.40
31379;DHT22;61664;48.112;11.662;2023-04-01T01:02:14;10.70;84.70
31379;DHT22;61664;48.112;11.662;2023-04-01T01:04:42;10.70;85.10
31379;DHT22;61664;48.112;11.662;2023-04-01T01:10:18;10.70;83.30
31379;DHT22;61664;48.112;11.662;2023-04-01T01:13:31;10.70;83.30
31379;DHT22;61664;48.112;11.662;2023-04-01T01:18:35;10.70;85.20
31379;DHT22;61664;48.112;11.662;2023-04-01T01:27:10;10.70;83.40
31379;DHT22;61664;48.112;11.662;2023-04-01T01:37:51;10.80;85.00
31379;DHT22;61664;48.112;11.662;2023-04-01T01:40:25;10.80;85.40
31379;DHT22;61664;48.112;11.662;2023-04-01T01:42:57;10.90;85.90
31379;DHT22;61664;48.112;11.662;2023-04-01T01:45:32;10.80;85.60
31379;DHT22;61664;48.112;11.662;2023-04-01T01:48:04;10.90;85.30
31379;DHT22;61664;48.112;11.662;2023-04-01T01:50:33;10.90;85.40
31379;DHT22;61664;48.112;11.662;2023-04-01T01:53:07;10.90;85.60
31379;DHT22;61664;48.112;11.662;2023-04-01T01:55:42;10.80;85.30
31379;DHT22;61664;48.112;11.662;2023-04-01T01:58:18;10.90;83.90
31379;DHT22;61664;48.112;11.662;2023-04-01T02:00:50;10.90;83.40
31379;DHT22;61664;48.112;11.662;2023-04-01T02:03:23;10.90;84.30
31379;DHT22;61664;48.112;11.662;2023-04-01T02:05:56;10.90;84.80
31379;DHT22;61664;48.112;11.662;2023-04-01T02:11:15;10.90;81.80
31379;DHT22;61664;48.112;11.662;2023-04-01T02:13:51;10.80;84.70
31379;DHT22;61664;48.112;11.662;2023-04-01T02:16:27;10.90;83.70
31379;DHT22;61664;48.112;11.662;2023-04-01T02:18:59;10.90;84.10
31379;DHT22;61664;48.112;11.662;2023-04-01T02:21:31;10.90;85.10
31379;DHT22;61664;48.112;11.662;2023-04-01T02:24:02;10.90;84.50
31379;DHT22;61664;48.112;11.662;2023-04-01T02:26:32;10.90;85.00
31379;DHT22;61664;48.112;11.662;2023-04-01T02:29:00;10.90;85.10
31379;DHT22;61664;48.112;11.662;2023-04-01T02:31:31;10.90;85.00
31379;DHT22;61664;48.112;11.662;2023-04-01T02:33:59;10.80;85.00
31379;DHT22;61664;48.112;11.662;2023-04-01T02:36:26;10.80;85.10
31379;DHT22;61664;48.112;11.662;2023-04-01T02:38:54;10.80;85.10
31379;DHT22;61664;48.112;11.662;2023-04-01T02:41:25;10.80;85.00
31379;DHT22;61664;48.112;11.662;2023-04-01T02:43:52;10.80;85.20
31379;DHT22;61664;48.112;11.662;2023-04-01T02:46:19;10.90;85.20
31379;DHT22;61664;48.112;11.662;2023-04-01T02:48:46;10.90;85.10
31379;DHT22;61664;48.112;11.662;2023-04-01T02:51:13;10.90;85.10
31379;DHT22;61664;48.112;11.662;2023-04-01T02:53:42;10.80;84.90
31379;DHT22;61664;48.112;11.662;2023-04-01T02:56:09;10.80;84.90
31379;DHT22;61664;48.112;11.662;2023-04-01T02:58:35;10.90;84.90
31379;DHT22;61664;48.112;11.662;2023-04-01T03:01:03;10.90;84.80
31379;DHT22;61664;48.112;11.662;2023-04-01T03:03:29;10.80;84.70
31379;DHT22;61664;48.112;11.662;2023-04-01T03:05:56;10.80;84.70
31379;DHT22;61664;48.112;11.662;2023-04-01T03:08:25;10.80;84.70
31379;DHT22;61664;48.112;11.662;2023-04-01T03:10:52;10.80;84.60
31379;DHT22;61664;48.112;11.662;2023-04-01T03:13:18;10.80;84.70
31379;DHT22;61664;48.112;11.662;2023-04-01T03:15:45;10.80;84.60
31379;DHT22;61664;48.112;11.662;2023-04-01T03:18:12;10.80;84.30
31379;DHT22;61664;48.112;11.662;2023-04-01T03:20:39;10.80;84.30
31379;DHT22;61664;48.112;11.662;2023-04-01T03:23:07;10.80;84.40
31379;DHT22;61664;48.112;11.662;2023-04-01T03:25:34;10.80;84.30
31379;DHT22;61664;48.112;11.662;2023-04-01T03:28:01;10.80;84.50
31379;DHT22;61664;48.112;11.662;2023-04-01T03:30:29;10.80;84.30
31379;DHT22;61664;48.112;11.662;2023-04-01T03:32:58;10.80;84.30
31379;DHT22;61664;48.112;11.662;2023-04-01T03:35:26;10.80;84.30
31379;DHT22;61664;48.112;11.662;2023-04-01T03:37:54;10.80;84.00
31379;DHT22;61664;48.112;11.662;2023-04-01T03:40:22;10.70;83.90
31379;DHT22;61664;48.112;11.662;2023-04-01T03:42:49;10.70;83.90
31379;DHT22;61664;48.112;11.662;2023-04-01T03:45:17;10.70;83.70
31379;DHT22;61664;48.112;11.662;2023-04-01T03:47:44;10.70;83.60
31379;DHT22;61664;48.112;11.662;2023-04-01T03:50:11;10.70;83.60
31379;DHT22;61664;48.112;11.662;2023-04-01T03:52:38;10.60;83.70
31379;DHT22;61664;48.112;11.662;2023-04-01T03:55:06;10.60;83.70
31379;DHT22;61664;48.112;11.662;2023-04-01T03:57:33;10.50;84.00
31379;DHT22;61664;48.112;11.662;2023-04-01T04:00:00;10.50;84.10
31379;DHT22;61664;48.112;11.662;2023-04-01T04:02:27;10.50;84.20
31379;DHT22;61664;48.112;11.662;2023-04-01T04:04:54;10.50;84.70
31379;DHT22;61664;48.112;11.662;2023-04-01T04:07:21;10.50;84.30
31379;DHT22;61664;48.112;11.662;2023-04-01T04:09:48;10.50;84.30
31379;DHT22;61664;48.112;11.662;2023-04-01T04:12:14;10.50;84.10
31379;DHT22;61664;48.112;11.662;2023-04-01T04:14:41;10.50;84.00
31379;DHT22;61664;48.112;11.662;2023-04-01T04:17:11;10.40;83.90
31379;DHT22;61664;48.112;11.662;2023-04-01T04:19:43;10.40;83.40
31379;DHT22;61664;48.112;11.662;2023-04-01T04:22:09;10.40;83.80
31379;DHT22;61664;48.112;11.662;2023-04-01T04:24:37;10.50;83.90
31379;DHT22;61664;48.112;11.662;2023-04-01T04:27:05;10.40;84.00
31379;DHT22;61664;48.112;11.662;2023-04-01T04:29:32;10.40;84.20
31379;DHT22;61664;48.112;11.662;2023-04-01T04:31:59;10.40;84.50
31379;DHT22;61664;48.112;11.662;2023-04-01T04:34:26;10.40;84.60
31379;DHT22;61664;48.112;11.662;2023-04-01T04:36:53;10.40;84.70
31379;DHT22;61664;48.112;11.662;2023-04-01T04:39:20;10.40;84.70
31379;DHT22;61664;48.112;11.662;2023-04-01T04:41:47;10.40;84.60
31379;DHT22;61664;48.112;11.662;2023-04-01T04:44:14;10.40;84.50
31379;DHT22;61664;48.112;11.662;2023-04-01T04:46:40;10.40;84.50
31379;DHT22;61664;48.112;11.662;2023-04-01T04:49:07;10.40;84.40
31379;DHT22;61664;48.112;11.662;2023-04-01T04:51:34;10.40;84.50
31379;DHT22;61664;48.112;11.662;2023-04-01T04:54:03;10.40;84.50
31379;DHT22;61664;48.112;11.662;2023-04-01T04:56:31;10.40;84.60
31379;DHT22;61664;48.112;11.662;2023-04-01T04:58:58;10.50;84.70
31379;DHT22;61664;48.112;11.662;2023-04-01T05:01:26;10.50;84.80
31379;DHT22;61664;48.112;11.662;2023-04-01T05:03:52;10.50;84.70
31379;DHT22;61664;48.112;11.662;2023-04-01T05:06:20;10.50;84.80
31379;DHT22;61664;48.112;11.662;2023-04-01T05:08:49;10.50;84.80
31379;DHT22;61664;48.112;11.662;2023-04-01T05:11:18;10.50;84.90
31379;DHT22;61664;48.112;11.662;2023-04-01T05:13:46;10.60;84.80
31379;DHT22;61664;48.112;11.662;2023-04-01T05:16:15;10.60;85.10
31379;DHT22;61664;48.112;11.662;2023-04-01T05:18:44;10.60;84.80
31379;DHT22;61664;48.112;11.662;2023-04-01T05:21:13;10.60;85.20
31379;DHT22;61664;48.112;11.662;2023-04-01T05:23:41;10.70;85.20
31379;DHT22;61664;48.112;11.662;2023-04-01T05:26:11;10.70;85.30
31379;DHT22;61664;48.112;11.662;2023-04-01T05:28:40;10.70;84.70
31379;DHT22;61664;48.112;11.662;2023-04-01T05:31:08;10.80;85.20
31379;DHT22;61664;48.112;11.662;2023-04-01T05:33:35;10.80;85.30
31379;DHT22;61664;48.112;11.662;2023-04-01T05:36:10;10.80;85.30
31379;DHT22;61664;48.112;11.662;2023-04-01T05:38:39;10.80;83.70
31379;DHT22;61664;48.112;11.662;2023-04-01T05:41:06;10.80;85.20
31379;DHT22;61664;48.112;11.662;2023-04-01T05:43:36;10.80;84.90
31379;DHT22;61664;48.112;11.662;2023-04-01T05:46:03;10.90;83.80
31379;DHT22;61664;48.112;11.662;2023-04-01T05:48:32;10.90;84.60
31379;DHT22;61664;48.112;11.662;2023-04-01T05:51:02;10.90;84.70
31379;DHT22;61664;48.112;11.662;2023-04-01T05:53:29;10.90;84.50
31379;DHT22;61664;48.112;11.662;2023-04-01T05:55:56;10.90;84.60
31379;DHT22;61664;48.112;11.662;2023-04-01T05:58:23;10.90;84.50
31379;DHT22;61664;48.112;11.662;2023-04-01T06:00:50;11.00;84.60
31379;DHT22;61664;48.112;11.662;2023-04-01T06:03:34;11.00;84.60
31379;DHT22;61664;48.112;11.662;2023-04-01T06:06:03;11.00;84.70
31379;DHT22;61664;48.112;11.662;2023-04-01T06:08:31;11.10;84.60
31379;DHT22;61664;48.112;11.662;2023-04-01T06:11:13;11.10;84.60
31379;DHT22;61664;48.112;11.662;2023-04-01T06:20:00;11.20;80.80
31379;DHT22;61664;48.112;11.662;2023-04-01T06:30:43;11.40;83.20
31379;DHT22;61664;48.112;11.662;2023-04-01T06:45:20;11.50;79.60
31379;DHT22;61664;48.112;11.662;2023-04-01T06:54:06;11.60;80.80
31379;DHT22;61664;48.112;11.662;2023-04-01T06:56:38;11.60;81.70
31379;DHT22;61664;48.112;11.662;2023-04-01T06:59:25;11.70;84.50
31379;DHT22;61664;48.112;11.662;2023-04-01T07:01:57;11.70;80.30
31379;DHT22;61664;48.112;11.662;2023-04-01T07:04:33;11.70;84.20
31379;DHT22;61664;48.112;11.662;2023-04-01T07:07:10;11.80;83.60
31379;DHT22;61664;48.112;11.662;2023-04-01T07:09:46;11.80;83.70
31379;DHT22;61664;48.112;11.662;2023-04-01T07:15:20;11.90;79.10
31379;DHT22;61664;48.112;11.662;2023-04-01T07:17:59;12.00;79.10
31379;DHT22;61664;48.112;11.662;2023-04-01T07:20:33;12.20;81.60
31379;DHT22;61664;48.112;11.662;2023-04-01T07:23:06;12.20;85.10
31379;DHT22;61664;48.112;11.662;2023-04-01T07:25:41;12.30;84.40
31379;DHT22;61664;48.112;11.662;2023-04-01T07:28:14;12.30;83.50
31379;DHT22;61664;48.112;11.662;2023-04-01T07:33:44;12.40;84.10
31379;DHT22;61664;48.112;11.662;2023-04-01T07:48:37;12.60;80.10
31379;DHT22;61664;48.112;11.662;2023-04-01T07:51:22;12.70;79.20
31379;DHT22;61664;48.112;11.662;2023-04-01T07:54:09;12.80;81.00
31379;DHT22;61664;48.112;11.662;2023-04-01T07:56:55;12.90;77.90
31379;DHT22;61664;48.112;11.662;2023-04-01T08:02:52;12.90;79.00
31379;DHT22;61664;48.112;11.662;2023-04-01T08:05:57;12.90;83.30
31379;DHT22;61664;48.112;11.662;2023-04-01T08:12:04;13.00;81.50
31379;DHT22;61664;48.112;11.662;2023-04-01T08:14:53;13.10;78.40
31379;DHT22;61664;48.112;11.662;2023-04-01T08:20:48;13.30;78.20
31379;DHT22;61664;48.112;11.662;2023-04-01T08:23:30;13.40;78.10
31379;DHT22;61664;48.112;11.662;2023-04-01T08:29:00;13.50;82.30
31379;DHT22;61664;48.112;11.662;2023-04-01T08:31:37;13.50;82.00
31379;DHT22;61664;48.112;11.662;2023-04-01T08:34:30;13.60;81.40
31379;DHT22;61664;48.112;11.662;2023-04-01T08:37:13;13.70;80.30
31379;DHT22;61664;48.112;11.662;2023-04-01T08:39:57;13.80;78.90
31379;DHT22;61664;48.112;11.662;2023-04-01T09:00:54;16.20;74.10
31379;DHT22;61664;48.112;11.662;2023-04-01T09:09:22;16.00;75.00
31379;DHT22;61664;48.112;11.662;2023-04-01T09:24:49;16.80;75.40
31379;DHT22;61664;48.112;11.662;2023-04-01T09:27:29;16.80;72.60
31379;DHT22;61664;48.112;11.662;2023-04-01T09:39:03;17.70;71.40
31379;DHT22;61664;48.112;11.662;2023-04-01T09:42:08;17.50;71.10
31379;DHT22;61664;48.112;11.662;2023-04-01T09:45:01;17.30;69.40
31379;DHT22;61664;48.112;11.662;2023-04-01T09:56:39;16.40;69.20
31379;DHT22;61664;48.112;11.662;2023-04-01T10:03:11;16.00;71.10
31379;DHT22;61664;48.112;11.662;2023-04-01T10:05:27;16.00;72.50
31379;DHT22;61664;48.112;11.662;2023-04-01T10:14:03;16.00;73.20
31379;DHT22;61664;48.112;11.662;2023-04-01T10:20:06;16.00;71.80
31379;DHT22;61664;48.112;11.662;2023-04-01T10:31:38;15.90;75.30
31379;DHT22;61664;48.112;11.662;2023-04-01T10:43:46;15.80;74.00
31379;DHT22;61664;48.112;11.662;2023-04-01T10:50:02;16.00;76.90
31379;DHT22;61664;48.112;11.662;2023-04-01T10:52:53;16.00;73.10
31379;DHT22;61664;48.112;11.662;2023-04-01T10:56:04;16.00;71.20
31379;DHT22;61664;48.112;11.662;2023-04-01T11:05:20;15.80;73.20
31379;DHT22;61664;48.112;11.662;2023-04-01T11:11:59;15.70;74.10
31379;DHT22;61664;48.112;11.662;2023-04-01T11:18:21;15.50;69.70
31379;DHT22;61664;48.112;11.662;2023-04-01T11:28:02;15.10;70.60
31379;DHT22;61664;48.112;11.662;2023-04-01T11:33:44;14.90;70.00
31379;DHT22;61664;48.112;11.662;2023-04-01T11:54:06;14.50;72.80
31379;DHT22;61664;48.112;11.662;2023-04-01T11:57:13;14.50;73.90
31379;DHT22;61664;48.112;11.662;2023-04-01T12:00:30;14.30;71.40
31379;DHT22;61664;48.112;11.662;2023-04-01T12:12:40;13.60;72.80
31379;DHT22;61664;48.112;11.662;2023-04-01T12:28:25;12.30;74.30
31379;DHT22;61664;48.112;11.662;2023-04-01T12:37:06;11.80;76.00
31379;DHT22;61664;48.112;11.662;2023-04-01T12:42:44;11.60;76.90
31379;DHT22;61664;48.112;11.662;2023-04-01T12:48:29;11.30;79.50
31379;DHT22;61664;48.112;11.662;2023-04-01T12:51:28;11.30;79.70
31379;DHT22;61664;48.112;11.662;2023-04-01T13:18:17;10.80;81.50
31379;DHT22;61664;48.112;11.662;2023-04-01T13:21:33;10.80;83.00
31379;DHT22;61664;48.112;11.662;2023-04-01T13:25:06;10.70;83.00
31379;DHT22;61664;48.112;11.662;2023-04-01T13:27:44;10.70;80.30
31379;DHT22;61664;48.112;11.662;2023-04-01T13:39:20;10.60;82.10
31379;DHT22;61664;48.112;11.662;2023-04-01T13:45:21;10.60;81.70
31379;DHT22;61664;48.112;11.662;2023-04-01T14:01:05;10.70;83.40
31379;DHT22;61664;48.112;11.662;2023-04-01T14:03:43;10.70;82.30
31379;DHT22;61664;48.112;11.662;2023-04-01T14:06:28;10.80;85.70
31379;DHT22;61664;48.112;11.662;2023-04-01T14:12:06;10.90;86.50
31379;DHT22;61664;48.112;11.662;2023-04-01T14:23:51;11.20;82.60
31379;DHT22;61664;48.112;11.662;2023-04-01T14:26:53;11.20;85.20
31379;DHT22;61664;48.112;11.662;2023-04-01T14:45:29;11.20;85.40
31379;DHT22;61664;48.112;11.662;2023-04-01T14:48:23;11.20;82.30
31379;DHT22;61664;48.112;11.662;2023-04-01T14:51:01;11.30;82.70
31379;DHT22;61664;48.112;11.662;2023-04-01T14:59:27;11.40;84.90
31379;DHT22;61664;48.112;11.662;2023-04-01T15:02:32;11.40;82.90
31379;DHT22;61664;48.112;11.662;2023-04-01T15:08:18;11.40;82.90
31379;DHT22;61664;48.112;11.662;2023-04-01T15:14:01;11.40;83.70
31379;DHT22;61664;48.112;11.662;2023-04-01T15:26:05;11.30;83.30
31379;DHT22;61664;48.112;11.662;2023-04-01T15:29:01;11.30;82.80
31379;DHT22;61664;48.112;11.662;2023-04-01T15:37:56;11.10;82.70
31379;DHT22;61664;48.112;11.662;2023-04-01T15:40:54;11.10;82.80
31379;DHT22;61664;48.112;11.662;2023-04-01T15:43:47;11.10;83.30
31379;DHT22;61664;48.112;11.662;2023-04-01T15:58:26;11.30;83.30
31379;DHT22;61664;48.112;11.662;2023-04-01T16:07:10;11.50;82.50
31379;DHT22;61664;48.112;11.662;2023-04-01T16:13:18;11.60;82.50
31379;DHT22;61664;48.112;11.662;2023-04-01T16:16:19;11.60;84.40
31379;DHT22;61664;48.112;11.662;2023-04-01T16:22:08;11.80;84.80
31379;DHT22;61664;48.112;11.662;2023-04-01T16:24:48;11.80;83.30
31379;DHT22;61664;48.112;11.662;2023-04-01T16:27:46;11.80;83.50
31379;DHT22;61664;48.112;11.662;2023-04-01T16:33:32;11.80;82.00
31379;DHT22;61664;48.112;11.662;2023-04-01T16:36:09;11.90;81.60
31379;DHT22;61664;48.112;11.662;2023-04-01T16:39:41;11.90;84.80
31379;DHT22;61664;48.112;11.662;2023-04-01T16:45:00;12.00;85.30
31379;DHT22;61664;48.112;11.662;2023-04-01T16:47:52;12.00;80.20
31379;DHT22;61664;48.112;11.662;2023-04-01T16:50:26;12.10;83.00
31379;DHT22;61664;48.112;11.662;2023-04-01T16:53:08;12.10;84.50
31379;DHT22;61664;48.112;11.662;2023-04-01T16:55:56;12.00;82.10
31379;DHT22;61664;48.112;11.662;2023-04-01T16:59:27;12.10;79.40
31379;DHT22;61664;48.112;11.662;2023-04-01T17:02:12;12.10;80.20
31379;DHT22;61664;48.112;11.662;2023-04-01T17:04:47;12.00;80.80
31379;DHT22;61664;48.112;11.662;2023-04-01T17:16:59;11.90;80.60
31379;DHT22;61664;48.112;11.662;2023-04-01T17:31:32;11.90;83.10
31379;DHT22;61664;48.112;11.662;2023-04-01T17:34:13;11.90;80.20
31379;DHT22;61664;48.112;11.662;2023-04-01T17:39:53;11.80;78.90
31379;DHT22;61664;48.112;11.662;2023-04-01T17:55:22;11.80;83.00
31379;DHT22;61664;48.112;11.662;2023-04-01T18:04:08;11.80;77.80
31379;DHT22;61664;48.112;11.662;2023-04-01T18:18:57;11.80;77.50
31379;DHT22;61664;48.112;11.662;2023-04-01T18:27:16;11.80;81.50
31379;DHT22;61664;48.112;11.662;2023-04-01T18:29:53;11.80;81.50
31379;DHT22;61664;48.112;11.662;2023-04-01T18:35:19;11.80;78.50
31379;DHT22;61664;48.112;11.662;2023-04-01T18:40:36;11.60;77.30
31379;DHT22;61664;48.112;11.662;2023-04-01T18:43:37;11.50;79.50
31379;DHT22;61664;48.112;11.662;2023-04-01T18:46:21;11.40;77.10
31379;DHT22;61664;48.112;11.662;2023-04-01T18:52:43;11.20;76.40
31379;DHT22;61664;48.112;11.662;2023-04-01T18:57:53;10.90;79.90
31379;DHT22;61664;48.112;11.662;2023-04-01T19:00:32;10.90;79.00
31379;DHT22;61664;48.112;11.662;2023-04-01T19:06:06;10.70;79.30
31379;DHT22;61664;48.112;11.662;2023-04-01T19:08:44;10.70;82.10
31379;DHT22;61664;48.112;11.662;2023-04-01T19:11:26;10.70;82.80
31379;DHT22;61664;48.112;11.662;2023-04-01T19:17:43;10.70;83.70
31379;DHT22;61664;48.112;11.662;2023-04-01T19:26:52;10.70;81.60
31379;DHT22;61664;48.112;11.662;2023-04-01T19:29:58;10.70;82.80
31379;DHT22;61664;48.112;11.662;2023-04-01T19:35:22;10.70;83.50
31379;DHT22;61664;48.112;11.662;2023-04-01T19:38:36;10.70;83.40
31379;DHT22;61664;48.112;11.662;2023-04-01T19:52:56;11.00;83.10
31379;DHT22;61664;48.112;11.662;2023-04-01T19:55:47;11.00;85.20
31379;DHT22;61664;48.112;11.662;2023-04-01T19:58:36;11.00;81.60
31379;DHT22;61664;48.112;11.662;2023-04-01T20:01:20;11.10;82.30
31379;DHT22;61664;48.112;11.662;2023-04-01T20:04:01;11.10;83.70
31379;DHT22;61664;48.112;11.662;2023-04-01T20:18:20;11.00;79.00
31379;DHT22;61664;48.112;11.662;2023-04-01T20:21:02;11.00;82.10
31379;DHT22;61664;48.112;11.662;2023-04-01T20:23:42;10.90;80.10
31379;DHT22;61664;48.112;11.662;2023-04-01T20:26:12;10.90;80.10
31379;DHT22;61664;48.112;11.662;2023-04-01T20:35:18;10.80;80.10
31379;DHT22;61664;48.112;11.662;2023-04-01T20:44:11;10.70;81.40
31379;DHT22;61664;48.112;11.662;2023-04-01T20:49:53;10.70;79.60
31379;DHT22;61664;48.112;11.662;2023-04-01T21:12:50;10.60;79.90
31379;DHT22;61664;48.112;11.662;2023-04-01T21:15:43;10.70;79.60
31379;DHT22;61664;48.112;11.662;2023-04-01T21:21:16;10.70;82.20
31379;DHT22;61664;48.112;11.662;2023-04-01T21:30:42;10.70;83.00
31379;DHT22;61664;48.112;11.662;2023-04-01T21:47:45;10.80;80.70
31379;DHT22;61664;48.112;11.662;2023-04-01T21:54:27;10.80;80.30
31379;DHT22;61664;48.112;11.662;2023-04-01T21:57:56;10.80;79.00
31379;DHT22;61664;48.112;11.662;2023-04-01T22:00:53;10.80;79.80
31379;DHT22;61664;48.112;11.662;2023-04-01T22:04:18;10.90;83.60
31379;DHT22;61664;48.112;11.662;2023-04-01T22:06:48;10.90;82.80
31379;DHT22;61664;48.112;11.662;2023-04-01T22:09:32;10.80;79.80
31379;DHT22;61664;48.112;11.662;2023-04-01T22:12:33;10.80;83.40
31379;DHT22;61664;48.112;11.662;2023-04-01T22:17:55;10.90;81.30
31379;DHT22;61664;48.112;11.662;2023-04-01T22:20:56;10.90;82.80
31379;DHT22;61664;48.112;11.662;2023-04-01T22:23:46;10.90;80.70
31379;DHT22;61664;48.112;11.662;2023-04-01T22:26:42;10.90;79.60
31379;DHT22;61664;48.112;11.662;2023-04-01T22:29:25;10.90;81.40
31379;DHT22;61664;48.112;11.662;2023-04-01T22:43:37;10.90;81.70
31379;DHT22;61664;48.112;11.662;2023-04-01T22:46:12;11.00;83.30
31379;DHT22;61664;48.112;11.662;2023-04-01T22:49:15;10.90;82.30
31379;DHT22;61664;48.112;11.662;2023-04-01T22:54:52;11.00;82.20
31379;DHT22;61664;48.112;11.662;2023-04-01T23:00:39;10.90;81.10
31379;DHT22;61664;48.112;11.662;2023-04-01T23:03:29;11.00;79.60
31379;DHT22;61664;48.112;11.662;2023-04-01T23:06:00;11.00;78.90
31379;DHT22;61664;48.112;11.662;2023-04-01T23:08:39;11.00;82.60
31379;DHT22;61664;48.112;11.662;2023-04-01T23:11:14;11.00;82.40
31379;DHT22;61664;48.112;11.662;2023-04-01T23:13:49;11.00;82.30
31379;DHT22;61664;48.112;11.662;2023-04-01T23:16:41;11.00;82.20
31379;DHT22;61664;48.112;11.662;2023-04-01T23:19:40;11.00;79.00
31379;DHT22;61664;48.112;11.662;2023-04-01T23:38:37;11.00;81.70
31379;DHT22;61664;48.112;11.662;2023-04-01T23:41:22;11.00;81.30
31379;DHT22;61664;48.112;11.662;2023-04-01T23:44:00;11.00;78.90
31379;DHT22;61664;48.112;11.662;2023-04-01T23:46:33;11.00;80.50
31379;DHT22;61664;48.112;11.662;2023-04-01T23:49:02;11.00;81.90
31379;DHT22;61664;48.112;11.662;2023-04-01T23:51:38;11.00;82.10
31379;DHT22;61664;48.112;11.662;2023-04-01T23:55:22;11.00;80.90
